createdAt,value
2022-11-01T00:02:03.347Z,17.49
2022-11-01T00:04:29.795Z,17.55
2022-11-01T00:06:56.195Z,17.59
2022-11-01T00:09:22.920Z,17.58
2022-11-01T00:11:49.647Z,17.77
2022-11-01T00:14:17.819Z,17.73
2022-11-01T00:16:44.219Z,17.78
2022-11-01T00:19:11.044Z,17.87
2022-11-01T00:21:37.738Z,17.90
2022-11-01T00:24:04.390Z,17.90
2022-11-01T00:26:31.050Z,18.02
2022-11-01T00:28:57.441Z,17.91
2022-11-01T00:31:24.173Z,17.86
2022-11-01T00:33:50.611Z,17.93
2022-11-01T00:36:17.035Z,17.91
2022-11-01T00:38:43.427Z,18.04
2022-11-01T00:41:09.948Z,17.99
2022-11-01T00:43:36.716Z,17.99
2022-11-01T00:46:03.741Z,18.10
2022-11-01T00:48:30.393Z,18.06
2022-11-01T00:50:56.767Z,18.00
2022-11-01T00:53:23.129Z,18.03
2022-11-01T00:55:49.495Z,17.98
2022-11-01T00:58:15.908Z,17.89
2022-11-01T01:00:42.346Z,17.79
2022-11-01T01:03:08.780Z,17.71
2022-11-01T01:05:35.849Z,17.72
2022-11-01T01:08:02.779Z,17.57
2022-11-01T01:10:29.466Z,17.67
2022-11-01T01:12:55.834Z,17.74
2022-11-01T01:15:22.351Z,17.75
2022-11-01T01:17:48.745Z,17.73
2022-11-01T01:20:15.306Z,17.45
2022-11-01T01:22:42.547Z,17.38
2022-11-01T01:25:09.914Z,17.41
2022-11-01T01:27:36.381Z,17.38
2022-11-01T01:30:03.579Z,17.40
2022-11-01T01:32:29.978Z,17.40
2022-11-01T01:34:56.363Z,17.32
2022-11-01T01:37:22.751Z,17.32
2022-11-01T01:39:49.120Z,17.32
2022-11-01T01:42:26.916Z,17.23
2022-11-01T01:44:53.343Z,17.35
2022-11-01T01:47:30.913Z,17.39
2022-11-01T01:50:32.428Z,17.37
2022-11-01T01:53:23.758Z,17.39
2022-11-01T01:55:59.919Z,17.34
2022-11-01T01:58:30.568Z,17.28
2022-11-01T02:00:57.642Z,17.25
2022-11-01T02:03:27.665Z,17.25
2022-11-01T02:05:58.038Z,17.21
2022-11-01T02:08:30.277Z,17.24
2022-11-01T02:10:59.429Z,17.22
2022-11-01T02:13:25.800Z,17.20
2022-11-01T02:16:16.838Z,17.17
2022-11-01T02:18:54.150Z,17.25
2022-11-01T02:21:44.533Z,17.21
2022-11-01T02:24:23.021Z,17.29
2022-11-01T02:27:10.432Z,17.16
2022-11-01T02:29:55.399Z,17.22
2022-11-01T02:32:29.129Z,17.23
2022-11-01T02:34:59.304Z,17.31
2022-11-01T02:37:29.859Z,17.24
2022-11-01T02:40:01.227Z,17.25
2022-11-01T02:42:31.334Z,17.11
2022-11-01T02:45:04.224Z,17.04
2022-11-01T02:47:31.889Z,17.07
2022-11-01T02:50:05.013Z,17.09
2022-11-01T02:52:33.110Z,17.02
2022-11-01T02:55:01.358Z,16.89
2022-11-01T02:57:32.063Z,16.88
2022-11-01T03:00:05.078Z,16.88
2022-11-01T03:02:40.535Z,16.85
2022-11-01T03:05:11.585Z,16.82
2022-11-01T03:07:39.707Z,16.81
2022-11-01T03:10:06.693Z,16.92
2022-11-01T03:12:34.885Z,16.97
2022-11-01T03:15:20.715Z,16.96
2022-11-01T03:18:14.050Z,17.03
2022-11-01T03:20:47.416Z,17.12
2022-11-01T03:23:30.633Z,17.02
2022-11-01T03:26:00.194Z,17.13
2022-11-01T03:28:31.318Z,17.11
2022-11-01T03:31:02.719Z,16.96
2022-11-01T03:33:30.692Z,17.00
2022-11-01T03:36:04.019Z,16.98
2022-11-01T03:38:34.552Z,16.93
2022-11-01T03:41:04.633Z,16.97
2022-11-01T03:43:33.643Z,17.00
2022-11-01T03:46:00.098Z,17.02
2022-11-01T03:48:26.487Z,17.05
2022-11-01T03:50:56.144Z,16.98
2022-11-01T03:53:23.359Z,17.05
2022-11-01T03:55:49.919Z,17.00
2022-11-01T03:58:16.782Z,17.01
2022-11-01T04:00:45.283Z,17.08
2022-11-01T04:03:12.574Z,17.10
2022-11-01T04:05:40.767Z,17.02
2022-11-01T04:08:08.113Z,17.08
2022-11-01T04:10:34.662Z,17.05
2022-11-01T04:13:01.752Z,17.17
2022-11-01T04:15:47.535Z,17.15
2022-11-01T04:18:36.478Z,17.12
2022-11-01T04:21:08.392Z,17.06
2022-11-01T04:23:35.081Z,17.03
2022-11-01T04:26:02.456Z,16.89
2022-11-01T04:28:29.874Z,16.98
2022-11-01T04:30:56.381Z,17.03
2022-11-01T04:33:22.805Z,16.93
2022-11-01T04:35:49.270Z,17.03
2022-11-01T04:38:16.036Z,16.91
2022-11-01T04:40:43.041Z,16.94
2022-11-01T04:43:10.057Z,16.96
2022-11-01T04:45:36.370Z,17.01
2022-11-01T04:48:13.371Z,16.94
2022-11-01T04:50:43.175Z,17.10
2022-11-01T04:53:11.522Z,17.07
2022-11-01T04:55:37.939Z,17.04
2022-11-01T04:58:06.504Z,17.01
2022-11-01T05:00:33.648Z,17.01
2022-11-01T05:03:05.274Z,17.06
2022-11-01T05:05:32.445Z,16.98
2022-11-01T05:08:07.311Z,16.97
2022-11-01T05:10:34.552Z,16.88
2022-11-01T05:13:01.697Z,16.87
2022-11-01T05:15:28.417Z,16.91
2022-11-01T05:17:54.762Z,16.85
2022-11-01T05:20:21.154Z,16.78
2022-11-01T05:22:48.235Z,16.68
2022-11-01T05:25:14.998Z,16.68
2022-11-01T05:27:41.370Z,16.78
2022-11-01T05:30:08.552Z,16.79
2022-11-01T05:32:37.931Z,16.84
2022-11-01T05:35:04.781Z,16.78
2022-11-01T05:37:31.261Z,16.73
2022-11-01T05:39:57.701Z,16.78
2022-11-01T05:42:24.102Z,16.71
2022-11-01T05:44:50.458Z,16.71
2022-11-01T05:47:17.552Z,16.70
2022-11-01T05:49:44.009Z,16.78
2022-11-01T05:52:10.517Z,16.69
2022-11-01T05:54:36.882Z,16.64
2022-11-01T05:57:05.467Z,16.67
2022-11-01T05:59:31.821Z,16.69
2022-11-01T06:01:58.262Z,16.65
2022-11-01T06:04:24.766Z,16.76
2022-11-01T06:06:51.116Z,16.58
2022-11-01T06:09:17.470Z,16.57
2022-11-01T06:11:43.819Z,16.51
2022-11-01T06:14:10.450Z,16.51
2022-11-01T06:16:36.803Z,16.45
2022-11-01T06:19:03.157Z,16.42
2022-11-01T06:21:30.502Z,16.35
2022-11-01T06:23:56.984Z,16.43
2022-11-01T06:26:23.325Z,16.42
2022-11-01T06:28:49.734Z,16.31
2022-11-01T06:31:16.242Z,16.35
2022-11-01T06:33:42.609Z,16.38
2022-11-01T06:36:09.151Z,16.30
2022-11-01T06:38:35.611Z,16.43
2022-11-01T06:41:03.055Z,16.45
2022-11-01T06:43:29.586Z,16.56
2022-11-01T06:45:59.498Z,16.58
2022-11-01T06:48:25.929Z,16.66
2022-11-01T06:50:53.859Z,16.66
2022-11-01T06:53:20.226Z,16.77
2022-11-01T06:55:46.579Z,16.85
2022-11-01T06:58:12.981Z,16.81
2022-11-01T07:00:39.345Z,16.81
2022-11-01T07:03:07.847Z,16.82
2022-11-01T07:05:37.216Z,16.94
2022-11-01T07:08:07.950Z,17.01
2022-11-01T07:10:36.769Z,16.55
2022-11-01T07:13:04.508Z,16.15
2022-11-01T07:15:31.206Z,16.10
2022-11-01T07:17:58.818Z,16.19
2022-11-01T07:20:27.287Z,15.79
2022-11-01T07:23:01.612Z,16.01
2022-11-01T07:25:28.994Z,16.05
2022-11-01T07:27:55.609Z,15.99
2022-11-01T07:30:22.283Z,16.10
2022-11-01T07:32:48.923Z,15.92
2022-11-01T07:35:15.454Z,15.98
2022-11-01T07:37:41.833Z,15.77
2022-11-01T07:40:08.630Z,15.68
2022-11-01T07:42:41.189Z,15.57
2022-11-01T07:45:12.756Z,15.50
2022-11-01T07:47:39.422Z,15.31
2022-11-01T07:50:06.264Z,15.31
2022-11-01T07:52:33.945Z,15.38
2022-11-01T07:55:00.496Z,15.38
2022-11-01T07:57:27.109Z,15.34
2022-11-01T07:59:53.506Z,15.20
2022-11-01T08:02:20.206Z,15.08
2022-11-01T08:04:46.694Z,15.10
2022-11-01T08:07:13.057Z,14.94
2022-11-01T08:09:39.443Z,14.99
2022-11-01T08:12:06.846Z,14.93
2022-11-01T08:14:33.218Z,15.05
2022-11-01T08:17:01.603Z,15.09
2022-11-01T08:19:28.182Z,15.02
2022-11-01T08:21:57.699Z,15.21
2022-11-01T08:24:24.153Z,15.17
2022-11-01T08:26:51.784Z,15.30
2022-11-01T08:29:18.241Z,15.26
2022-11-01T08:31:45.266Z,15.31
2022-11-01T08:34:16.059Z,15.36
2022-11-01T08:36:43.163Z,15.39
2022-11-01T08:41:41.166Z,15.43
2022-11-01T08:44:07.631Z,15.46
2022-11-01T08:46:33.974Z,15.40
2022-11-01T08:49:00.479Z,15.45
2022-11-01T08:51:27.716Z,15.54
2022-11-01T08:53:55.699Z,15.64
2022-11-01T08:56:24.628Z,15.80
2022-11-01T08:58:51.770Z,15.70
2022-11-01T09:01:18.294Z,15.83
2022-11-01T09:03:44.837Z,15.72
2022-11-01T09:06:11.322Z,15.47
2022-11-01T09:08:37.675Z,15.72
2022-11-01T09:11:05.967Z,15.82
2022-11-01T09:13:33.319Z,15.81
2022-11-01T09:16:02.343Z,15.81
2022-11-01T09:18:29.212Z,16.00
2022-11-01T09:20:56.221Z,16.09
2022-11-01T09:23:22.874Z,16.30
2022-11-01T09:25:49.235Z,16.49
2022-11-01T09:28:15.613Z,16.60
2022-11-01T09:30:49.657Z,16.45
2022-11-01T09:33:16.538Z,16.47
2022-11-01T09:35:47.678Z,16.47
2022-11-01T09:38:16.326Z,16.63
2022-11-01T09:40:46.618Z,16.27
2022-11-01T09:43:20.708Z,16.56
2022-11-01T09:45:48.620Z,16.45
2022-11-01T09:48:15.655Z,16.53
2022-11-01T09:50:43.828Z,16.70
2022-11-01T09:53:18.190Z,16.28
2022-11-01T09:56:10.242Z,16.22
2022-11-01T09:59:01.488Z,16.46
2022-11-01T10:01:39.442Z,16.58
2022-11-01T10:04:44.848Z,16.18
2022-11-01T10:07:13.766Z,16.46
2022-11-01T10:09:50.738Z,16.81
2022-11-01T10:12:33.742Z,16.61
2022-11-01T10:15:18.708Z,16.71
2022-11-01T10:17:52.405Z,16.47
2022-11-01T10:20:24.823Z,16.80
2022-11-01T10:22:51.256Z,16.87
2022-11-01T10:25:29.340Z,17.00
2022-11-01T10:27:58.675Z,17.38
2022-11-01T10:30:25.554Z,17.58
2022-11-01T10:33:03.685Z,17.07
2022-11-01T10:35:31.424Z,17.52
2022-11-01T10:38:19.321Z,18.22
2022-11-01T10:40:59.446Z,18.55
2022-11-01T10:43:25.996Z,17.68
2022-11-01T10:45:55.227Z,17.89
2022-11-01T10:48:29.658Z,18.08
2022-11-01T10:51:00.213Z,18.08
2022-11-01T10:53:28.651Z,18.34
2022-11-01T10:55:58.590Z,18.21
2022-11-01T10:58:36.201Z,17.81
2022-11-01T11:01:05.474Z,17.55
2022-11-01T11:03:32.210Z,17.22
2022-11-01T11:06:01.565Z,16.95
2022-11-01T11:08:28.011Z,16.99
2022-11-01T11:10:58.006Z,16.84
2022-11-01T11:13:25.193Z,16.74
2022-11-01T11:15:54.844Z,16.55
2022-11-01T11:18:25.598Z,16.58
2022-11-01T11:20:59.929Z,16.56
2022-11-01T11:23:27.660Z,16.66
2022-11-01T11:26:00.813Z,16.76
2022-11-01T11:28:30.897Z,16.92
2022-11-01T11:31:13.374Z,16.86
2022-11-01T11:33:48.159Z,16.65
2022-11-01T11:36:14.835Z,16.40
2022-11-01T11:38:51.243Z,16.27
2022-11-01T11:41:47.076Z,16.08
2022-11-01T11:44:35.084Z,16.19
2022-11-01T11:47:03.291Z,16.21
2022-11-01T11:49:29.812Z,16.13
2022-11-01T11:51:56.205Z,16.36
2022-11-01T11:54:32.068Z,16.40
2022-11-01T11:57:15.156Z,16.28
2022-11-01T11:59:43.094Z,16.53
2022-11-01T12:02:18.617Z,16.48
2022-11-01T12:04:58.641Z,16.40
2022-11-01T12:07:31.578Z,16.36
2022-11-01T12:10:02.260Z,16.55
2022-11-01T12:12:31.225Z,16.55
2022-11-01T12:14:58.588Z,16.58
2022-11-01T12:17:31.628Z,16.67
2022-11-01T12:20:09.475Z,16.74
2022-11-01T12:22:37.286Z,16.66
2022-11-01T12:25:13.053Z,16.87
2022-11-01T12:27:48.966Z,16.88
2022-11-01T12:30:19.793Z,16.91
2022-11-01T12:32:59.905Z,16.97
2022-11-01T12:35:37.651Z,16.76
2022-11-01T12:38:20.561Z,16.94
2022-11-01T12:40:50.031Z,17.00
2022-11-01T12:43:22.693Z,17.02
2022-11-01T12:45:53.942Z,17.06
2022-11-01T12:48:26.301Z,17.19
2022-11-01T12:51:18.739Z,17.37
2022-11-01T12:53:51.076Z,16.90
2022-11-01T12:56:17.937Z,16.90
2022-11-01T12:58:44.343Z,17.05
2022-11-01T13:01:23.422Z,17.28
2022-11-01T13:04:06.908Z,17.42
2022-11-01T13:06:59.765Z,17.21
2022-11-01T13:09:32.131Z,17.25
2022-11-01T13:12:07.988Z,16.94
2022-11-01T13:14:45.426Z,16.89
2022-11-01T13:17:17.613Z,17.18
2022-11-01T13:20:05.430Z,17.28
2022-11-01T13:22:40.071Z,17.18
2022-11-01T13:25:31.086Z,17.20
2022-11-01T13:28:13.050Z,17.39
2022-11-01T13:30:46.938Z,17.16
2022-11-01T13:33:21.366Z,16.97
2022-11-01T13:36:02.913Z,16.96
2022-11-01T13:38:42.144Z,16.92
2022-11-01T13:41:19.919Z,17.45
2022-11-01T13:43:54.152Z,17.98
2022-11-01T13:46:32.493Z,18.19
2022-11-01T13:49:04.790Z,18.72
2022-11-01T13:51:38.085Z,18.92
2022-11-01T13:54:27.659Z,19.38
2022-11-01T13:56:58.938Z,18.94
2022-11-01T13:59:45.204Z,18.51
2022-11-01T14:02:23.955Z,19.12
2022-11-01T14:05:11.125Z,18.70
2022-11-01T14:07:43.575Z,19.84
2022-11-01T14:10:16.884Z,19.99
2022-11-01T14:12:48.247Z,19.78
2022-11-01T14:15:21.983Z,19.68
2022-11-01T14:17:57.630Z,18.26
2022-11-01T14:20:31.455Z,17.61
2022-11-01T14:22:58.890Z,17.46
2022-11-01T14:25:30.002Z,17.20
2022-11-01T14:28:18.319Z,16.84
2022-11-01T14:30:47.290Z,16.79
2022-11-01T14:33:15.977Z,16.73
2022-11-01T14:35:46.876Z,16.77
2022-11-01T14:38:15.393Z,16.68
2022-11-01T14:40:48.277Z,16.74
2022-11-01T14:43:21.356Z,16.51
2022-11-01T14:45:53.139Z,16.53
2022-11-01T14:48:29.060Z,16.53
2022-11-01T14:51:02.535Z,16.45
2022-11-01T14:53:34.739Z,16.50
2022-11-01T14:56:04.990Z,16.66
2022-11-01T14:58:31.512Z,16.44
2022-11-01T15:01:11.154Z,16.39
2022-11-01T15:03:37.602Z,16.42
2022-11-01T15:06:04.693Z,16.24
2022-11-01T15:08:37.509Z,16.57
2022-11-01T15:11:04.604Z,16.45
2022-11-01T15:13:33.600Z,16.28
2022-11-01T15:16:04.048Z,16.28
2022-11-01T15:18:31.539Z,16.54
2022-11-01T15:20:59.126Z,16.46
2022-11-01T15:23:32.344Z,16.64
2022-11-01T15:26:02.697Z,16.22
2022-11-01T15:28:37.118Z,15.92
2022-11-01T15:31:06.257Z,15.93
2022-11-01T15:33:36.026Z,15.99
2022-11-01T15:36:08.617Z,16.00
2022-11-01T15:38:56.251Z,15.86
2022-11-01T15:41:27.126Z,15.83
2022-11-01T15:43:58.517Z,15.70
2022-11-01T15:46:27.816Z,15.60
2022-11-01T15:48:56.643Z,15.31
2022-11-01T15:51:25.960Z,15.38
2022-11-01T15:54:01.095Z,15.36
2022-11-01T15:56:40.723Z,15.19
2022-11-01T15:59:20.683Z,15.06
2022-11-01T16:01:48.251Z,15.19
2022-11-01T16:04:15.842Z,15.03
2022-11-01T16:06:57.246Z,14.88
2022-11-01T16:09:40.220Z,14.95
2022-11-01T16:12:15.368Z,14.85
2022-11-01T16:14:41.840Z,14.83
2022-11-01T16:17:25.787Z,14.70
2022-11-01T16:19:52.739Z,14.56
2022-11-01T16:22:45.162Z,14.59
2022-11-01T16:25:11.464Z,14.60
2022-11-01T16:27:51.187Z,14.62
2022-11-01T16:30:48.040Z,14.56
2022-11-01T16:33:33.508Z,14.75
2022-11-01T16:36:02.983Z,14.78
2022-11-01T16:38:39.484Z,14.79
2022-11-01T16:41:15.241Z,14.84
2022-11-01T16:43:41.984Z,14.80
2022-11-01T16:46:08.387Z,14.72
2022-11-01T16:48:54.475Z,14.58
2022-11-01T16:51:24.811Z,14.53
2022-11-01T16:53:51.453Z,14.62
2022-11-01T16:56:40.746Z,14.50
2022-11-01T16:59:08.955Z,14.43
2022-11-01T17:01:36.543Z,14.53
2022-11-01T17:04:03.323Z,14.55
2022-11-01T17:06:32.417Z,14.51
2022-11-01T17:09:02.760Z,14.61
2022-11-01T17:11:29.117Z,14.50
2022-11-01T17:13:55.483Z,14.47
2022-11-01T17:16:24.067Z,14.58
2022-11-01T17:18:54.018Z,14.45
2022-11-01T17:21:21.046Z,14.35
2022-11-01T17:23:48.099Z,14.46
2022-11-01T17:26:16.062Z,14.43
2022-11-01T17:28:43.217Z,14.33
2022-11-01T17:31:11.896Z,14.34
2022-11-01T17:33:38.328Z,14.40
2022-11-01T17:36:05.027Z,14.46
2022-11-01T17:38:32.686Z,14.50
2022-11-01T17:40:59.849Z,14.41
2022-11-01T17:43:26.279Z,14.30
2022-11-01T17:45:52.723Z,14.22
2022-11-01T17:48:19.270Z,14.17
2022-11-01T17:50:45.878Z,14.27
2022-11-01T17:53:14.642Z,14.19
2022-11-01T17:55:41.968Z,13.99
2022-11-01T17:58:09.632Z,14.02
2022-11-01T18:00:39.971Z,14.11
2022-11-01T18:03:06.313Z,14.07
2022-11-01T18:05:32.674Z,13.96
2022-11-01T18:07:59.891Z,13.90
2022-11-01T18:10:40.032Z,13.91
2022-11-01T18:13:33.228Z,13.80
2022-11-01T18:16:25.150Z,13.74
2022-11-01T18:19:19.511Z,13.76
2022-11-01T18:21:48.930Z,13.88
2022-11-01T18:24:24.486Z,13.95
2022-11-01T18:26:51.349Z,13.91
2022-11-01T18:29:22.098Z,13.83
2022-11-01T18:32:12.243Z,13.77
2022-11-01T18:34:44.588Z,13.83
2022-11-01T18:37:26.289Z,13.73
2022-11-01T18:39:57.296Z,13.70
2022-11-01T18:42:25.459Z,13.70
2022-11-01T18:44:53.297Z,13.67
2022-11-01T18:47:24.874Z,13.63
2022-11-01T18:49:53.026Z,13.74
2022-11-01T18:52:19.462Z,13.58
2022-11-01T18:54:56.662Z,13.54
2022-11-01T18:57:24.471Z,13.61
2022-11-01T18:59:52.837Z,13.68
2022-11-01T19:02:27.109Z,13.57
2022-11-01T19:05:18.153Z,13.51
2022-11-01T19:08:09.712Z,13.54
2022-11-01T19:10:32.953Z,13.46
2022-11-01T19:12:59.437Z,13.44
2022-11-01T19:15:28.157Z,13.50
2022-11-01T19:17:58.698Z,13.46
2022-11-01T19:20:31.178Z,13.52
2022-11-01T19:23:03.078Z,13.40
2022-11-01T19:25:33.902Z,13.45
2022-11-01T19:28:38.541Z,13.30
2022-11-01T19:31:14.909Z,13.41
2022-11-01T19:33:44.602Z,13.42
2022-11-01T19:36:19.101Z,13.50
2022-11-01T19:38:46.261Z,13.46
2022-11-01T19:41:15.946Z,13.28
2022-11-01T19:43:42.435Z,13.32
2022-11-01T19:46:13.512Z,13.32
2022-11-01T19:48:40.126Z,13.35
2022-11-01T19:51:33.205Z,13.27
2022-11-01T19:53:59.639Z,13.29
2022-11-01T19:56:29.252Z,13.16
2022-11-01T19:58:59.971Z,13.24
2022-11-01T20:01:41.256Z,13.18
2022-11-01T20:04:24.447Z,13.14
2022-11-01T20:06:55.914Z,13.17
2022-11-01T20:09:24.037Z,13.20
2022-11-01T20:11:50.789Z,13.25
2022-11-01T20:14:17.362Z,13.24
2022-11-01T20:16:43.852Z,13.15
2022-11-01T20:19:13.218Z,13.04
2022-11-01T20:21:42.834Z,13.06
2022-11-01T20:24:09.249Z,13.04
2022-11-01T20:26:35.679Z,13.17
2022-11-01T20:29:02.291Z,13.08
2022-11-01T20:31:29.224Z,13.08
2022-11-01T20:33:55.900Z,13.08
2022-11-01T20:36:22.341Z,13.11
2022-11-01T20:38:49.182Z,13.15
2022-11-01T20:41:15.613Z,12.98
2022-11-01T20:43:42.125Z,13.14
2022-11-01T20:46:08.532Z,13.02
2022-11-01T20:48:34.936Z,12.93
2022-11-01T20:51:01.543Z,13.06
2022-11-01T20:53:29.825Z,12.96
2022-11-01T20:55:56.446Z,13.02
2022-11-01T20:58:22.848Z,13.09
2022-11-01T21:00:51.332Z,13.18
2022-11-01T21:03:19.450Z,13.16
2022-11-01T21:05:48.130Z,13.27
2022-11-01T21:08:27.953Z,13.13
2022-11-01T21:10:59.458Z,13.03
2022-11-01T21:13:29.041Z,13.05
2022-11-01T21:15:59.889Z,13.13
2022-11-01T21:18:38.195Z,13.11
2022-11-01T21:21:25.210Z,12.99
2022-11-01T21:23:51.558Z,13.05
2022-11-01T21:26:31.737Z,12.94
2022-11-01T21:29:15.520Z,12.98
2022-11-01T21:31:42.561Z,12.94
2022-11-01T21:34:09.871Z,13.04
2022-11-01T21:36:39.591Z,12.91
2022-11-01T21:39:18.968Z,13.00
2022-11-01T21:41:46.919Z,13.02
2022-11-01T21:44:39.617Z,13.06
2022-11-01T21:47:08.777Z,12.99
2022-11-01T21:49:36.481Z,13.04
2022-11-01T21:52:04.906Z,12.99
2022-11-01T21:54:33.892Z,13.01
2022-11-01T21:57:01.501Z,12.90
2022-11-01T21:59:28.482Z,12.93
2022-11-01T22:01:55.911Z,12.93
2022-11-01T22:04:24.741Z,12.89
2022-11-01T22:06:54.179Z,12.86
2022-11-01T22:09:21.126Z,12.84
2022-11-01T22:11:47.570Z,12.85
2022-11-01T22:14:13.921Z,12.86
2022-11-01T22:16:40.288Z,12.85
2022-11-01T22:19:06.865Z,12.84
2022-11-01T22:21:33.614Z,12.79
2022-11-01T22:24:00.188Z,12.75
2022-11-01T22:26:26.620Z,12.78
2022-11-01T22:28:53.022Z,12.85
2022-11-01T22:31:19.791Z,12.73
2022-11-01T22:33:49.567Z,12.80
2022-11-01T22:36:22.057Z,12.82
2022-11-01T22:38:48.731Z,12.83
2022-11-01T22:41:37.237Z,12.87
2022-11-01T22:44:11.238Z,12.75
2022-11-01T22:46:53.657Z,12.73
2022-11-01T22:49:24.341Z,12.68
2022-11-01T22:52:03.837Z,12.73
2022-11-01T22:54:38.493Z,12.79
2022-11-01T22:57:07.831Z,12.75
2022-11-01T22:59:39.590Z,12.80
2022-11-01T23:02:28.839Z,12.74
2022-11-01T23:05:07.498Z,12.75
2022-11-01T23:07:44.226Z,12.76
2022-11-01T23:10:31.874Z,12.80
2022-11-01T23:13:35.251Z,12.82
2022-11-01T23:16:08.818Z,12.87
2022-11-01T23:18:42.252Z,12.83
2022-11-01T23:21:09.509Z,12.92
2022-11-01T23:23:37.832Z,12.98
2022-11-01T23:26:04.332Z,13.01
2022-11-01T23:28:34.884Z,13.04
2022-11-01T23:31:02.827Z,13.13
2022-11-01T23:33:36.598Z,13.19
2022-11-01T23:36:03.232Z,13.24
2022-11-01T23:38:48.812Z,13.26
2022-11-01T23:41:23.448Z,13.31
2022-11-01T23:43:52.132Z,13.26
2022-11-01T23:46:18.894Z,13.29
2022-11-01T23:48:45.261Z,13.35
2022-11-01T23:51:16.845Z,13.33
2022-11-01T23:53:44.499Z,13.38
2022-11-01T23:56:12.429Z,13.38
2022-11-01T23:58:38.887Z,13.38
